SNCG weather

Campos Gerais Airport
Campos Gerais, Paraná, Brazil

Public forecast

Using degrees Celsius for public forecast. Weather courtesy of forecast.io.

METAR (pilot weather report)

Report is more than 2 hours old.

Closest report is Poços de Caldas - Embaixador Walther Moreira Salles Airport, 57.6 nm (106.6 km) SW. Retrieved 2019/04/23 20:00 UTC (4 hours ago):

SBPC 232000Z 33002KT 9999 FEW020 BKN090 22/19 Q1021

TAF (pilot weather forecast)

Closest forecast is Campo Fontenelle Airport, 98.1 nm (181.6 km) WSW. Retrieved 2019/04/23 18:33 UTC (5 hours ago):

TAF TAF SBYS 231600Z 2318/2406 16006KT 9999 SCT045 FEW050TCU TX26/2318Z TN15/2405Z PROB30 2318/2322 TS VCSH SCT045 FEW050CB FM232300 18005KT 9999 SCT038 FEW045TCU PROB30 2400/2402 VCSH FM240200 18005KT NSW CAVOK PROB30 2405/2406 0500 FG FEW005 RMK PDS